createdAt,value
2022-10-21T00:01:34.058Z,38.10
2022-10-21T00:04:04.328Z,40.53
2022-10-21T00:06:33.720Z,30.15
2022-10-21T00:09:02.701Z,35.58
2022-10-21T00:11:31.724Z,30.60
2022-10-21T00:14:00.762Z,31.25
2022-10-21T00:16:30.179Z,27.25
2022-10-21T00:18:59.231Z,24.20
2022-10-21T00:21:28.589Z,25.30
2022-10-21T00:23:57.805Z,40.30
2022-10-21T00:26:26.866Z,31.42
2022-10-21T00:28:58.020Z,43.75
2022-10-21T00:31:27.453Z,22.27
2022-10-21T00:33:57.604Z,19.95
2022-10-21T00:36:27.404Z,19.48
2022-10-21T00:38:58.453Z,12.95
2022-10-21T00:41:27.749Z,15.32
2022-10-21T00:44:05.302Z,15.20
2022-10-21T00:46:45.525Z,16.70
2022-10-21T00:49:32.980Z,27.35
2022-10-21T00:52:05.304Z,18.23
2022-10-21T00:54:35.582Z,20.27
2022-10-21T00:57:05.610Z,16.52
2022-10-21T00:59:40.012Z,34.63
2022-10-21T01:02:12.711Z,32.58
2022-10-21T01:04:44.313Z,30.27
2022-10-21T01:07:14.831Z,29.35
2022-10-21T01:09:45.261Z,23.58
2022-10-21T01:12:33.368Z,26.15
2022-10-21T01:15:39.452Z,17.20
2022-10-21T01:18:41.146Z,20.27
2022-10-21T01:21:32.402Z,28.05
2022-10-21T01:24:44.509Z,20.10
2022-10-21T01:27:21.820Z,24.02
2022-10-21T01:30:10.609Z,21.70
2022-10-21T01:33:04.005Z,26.17
2022-10-21T01:35:52.043Z,18.02
2022-10-21T01:38:25.852Z,18.90
2022-10-21T01:41:18.927Z,25.40
2022-10-21T01:44:17.483Z,26.83
2022-10-21T01:47:07.645Z,26.90
2022-10-21T01:49:55.057Z,23.63
2022-10-21T01:52:25.351Z,32.58
2022-10-21T01:55:01.292Z,33.20
2022-10-21T01:57:35.263Z,37.67
2022-10-21T02:00:07.705Z,30.85
2022-10-21T02:02:41.836Z,40.97
2022-10-21T02:05:24.320Z,34.50
2022-10-21T02:07:53.882Z,35.20
2022-10-21T02:10:26.814Z,27.85
2022-10-21T02:13:01.752Z,28.00
2022-10-21T02:15:34.352Z,33.47
2022-10-21T02:18:11.151Z,23.10
2022-10-21T02:20:44.335Z,24.75
2022-10-21T02:23:19.411Z,22.80
2022-10-21T02:25:52.118Z,27.70
2022-10-21T02:28:22.900Z,19.80
2022-10-21T02:31:05.833Z,24.98
2022-10-21T02:33:42.420Z,26.60
2022-10-21T02:36:25.495Z,22.48
2022-10-21T02:39:05.721Z,46.50
2022-10-21T02:41:39.602Z,64.55
2022-10-21T02:44:10.233Z,187.77
2022-10-21T02:46:44.096Z,1055.20
2022-10-21T02:49:14.228Z,44.08
2022-10-21T02:51:45.112Z,23.05
2022-10-21T02:54:15.466Z,21.95
2022-10-21T02:56:46.081Z,19.63
2022-10-21T02:59:15.541Z,24.52
2022-10-21T03:01:44.866Z,27.48
2022-10-21T03:04:14.805Z,20.67
2022-10-21T03:06:44.905Z,34.42
2022-10-21T03:09:15.057Z,26.30
2022-10-21T03:11:45.264Z,22.13
2022-10-21T03:14:15.638Z,28.38
2022-10-21T03:16:45.080Z,23.52
2022-10-21T03:19:14.301Z,19.63
2022-10-21T03:21:44.981Z,22.55
2022-10-21T03:24:19.879Z,31.50
2022-10-21T03:26:58.659Z,20.95
2022-10-21T03:29:28.976Z,18.02
2022-10-21T03:31:58.834Z,18.80
2022-10-21T03:34:28.965Z,24.15
2022-10-21T03:36:59.270Z,17.23
2022-10-21T03:39:28.940Z,22.88
2022-10-21T03:41:58.579Z,15.13
2022-10-21T03:44:27.523Z,21.40
2022-10-21T03:46:56.889Z,20.45
2022-10-21T03:49:26.459Z,21.00
2022-10-21T03:51:55.628Z,26.98
2022-10-21T03:54:24.798Z,17.13
2022-10-21T03:56:54.118Z,20.85
2022-10-21T03:59:23.444Z,37.70
2022-10-21T04:01:52.492Z,18.88
2022-10-21T04:04:21.761Z,28.40
2022-10-21T04:06:50.804Z,27.05
2022-10-21T04:09:19.903Z,35.88
2022-10-21T04:11:49.247Z,21.90
2022-10-21T04:14:18.271Z,30.52
2022-10-21T04:16:48.029Z,38.38
2022-10-21T04:19:21.819Z,19.73
2022-10-21T04:21:51.553Z,23.67
2022-10-21T04:24:20.499Z,21.00
2022-10-21T04:26:49.738Z,24.70
2022-10-21T04:29:18.733Z,20.58
2022-10-21T04:31:47.855Z,24.70
2022-10-21T04:34:17.463Z,27.70
2022-10-21T04:36:46.387Z,21.98
2022-10-21T04:39:15.510Z,18.98
2022-10-21T04:41:46.702Z,42.47
2022-10-21T04:44:15.914Z,22.55
2022-10-21T04:46:44.949Z,14.63
2022-10-21T04:49:14.094Z,22.98
2022-10-21T04:51:43.149Z,30.05
2022-10-21T04:54:14.500Z,21.17
2022-10-21T04:56:44.158Z,18.48
2022-10-21T04:59:13.351Z,29.50
2022-10-21T05:01:43.057Z,15.80
2022-10-21T05:04:12.260Z,27.67
2022-10-21T05:06:41.480Z,20.98
2022-10-21T05:09:11.239Z,26.30
2022-10-21T05:11:40.651Z,21.58
2022-10-21T05:14:09.848Z,16.88
2022-10-21T05:16:39.201Z,24.05
2022-10-21T05:19:08.592Z,16.63
2022-10-21T05:24:11.921Z,33.00
2022-10-21T05:26:40.873Z,24.70
2022-10-21T05:29:10.473Z,17.73
2022-10-21T05:31:41.252Z,18.17
2022-10-21T05:34:13.596Z,48.28
2022-10-21T05:36:43.728Z,14.52
2022-10-21T05:39:12.986Z,16.92
2022-10-21T05:41:45.491Z,17.92
2022-10-21T05:44:17.412Z,19.08
2022-10-21T05:46:46.934Z,12.48
2022-10-21T05:49:16.384Z,18.40
2022-10-21T05:51:46.328Z,18.10
2022-10-21T05:54:15.772Z,13.25
2022-10-21T05:56:46.539Z,17.45
2022-10-21T05:59:16.079Z,14.43
2022-10-21T06:01:46.488Z,36.67
2022-10-21T06:04:15.794Z,19.50
2022-10-21T06:06:45.304Z,19.15
2022-10-21T06:09:14.718Z,26.50
2022-10-21T06:11:44.648Z,25.98
2022-10-21T06:14:13.699Z,28.55
2022-10-21T06:16:43.158Z,24.05
2022-10-21T06:19:12.375Z,14.48
2022-10-21T06:21:41.562Z,25.40
2022-10-21T06:24:13.367Z,20.20
2022-10-21T06:26:42.640Z,20.10
2022-10-21T06:29:12.078Z,28.80
2022-10-21T06:31:41.550Z,18.92
2022-10-21T06:34:10.834Z,23.02
2022-10-21T06:36:39.916Z,20.80
2022-10-21T06:39:10.393Z,16.98
2022-10-21T06:41:39.860Z,22.95
2022-10-21T06:44:08.723Z,15.77
2022-10-21T06:46:38.052Z,15.95
2022-10-21T06:49:07.524Z,19.67
2022-10-21T06:51:36.679Z,22.92
2022-10-21T06:54:05.610Z,25.27
2022-10-21T06:56:35.154Z,14.95
2022-10-21T06:59:04.824Z,20.38
2022-10-21T07:02:01.816Z,29.83
2022-10-21T07:04:27.131Z,24.13
2022-10-21T07:06:56.706Z,21.15
2022-10-21T07:09:26.454Z,27.80
2022-10-21T07:11:55.685Z,29.83
2022-10-21T07:14:26.611Z,21.15
2022-10-21T07:16:56.110Z,20.65
2022-10-21T07:19:25.123Z,23.02
2022-10-21T07:21:54.809Z,25.27
2022-10-21T07:24:24.091Z,21.08
2022-10-21T07:26:53.273Z,23.17
2022-10-21T07:29:22.696Z,32.40
2022-10-21T07:31:52.323Z,29.10
2022-10-21T07:34:21.746Z,22.50
2022-10-21T07:36:53.836Z,27.85
2022-10-21T07:39:26.689Z,25.40
2022-10-21T07:41:58.844Z,48.40
2022-10-21T07:44:28.820Z,28.45
2022-10-21T07:46:58.248Z,29.30
2022-10-21T07:49:27.259Z,31.88
2022-10-21T07:51:56.515Z,26.70
2022-10-21T07:54:25.732Z,26.20
2022-10-21T07:56:55.195Z,29.52
2022-10-21T07:59:25.029Z,27.95
2022-10-21T08:01:55.201Z,28.02
2022-10-21T08:04:32.975Z,29.95
2022-10-21T08:07:03.494Z,28.98
2022-10-21T08:09:32.629Z,39.35
2022-10-21T08:12:01.666Z,51.03
2022-10-21T08:14:32.230Z,30.20
2022-10-21T08:17:01.438Z,30.75
2022-10-21T08:19:31.158Z,25.92
2022-10-21T08:22:00.714Z,27.75
2022-10-21T08:24:30.159Z,43.80
2022-10-21T08:26:59.355Z,26.45
2022-10-21T08:29:28.599Z,41.67
2022-10-21T08:31:57.861Z,32.42
2022-10-21T08:34:26.982Z,34.30
2022-10-21T08:36:56.155Z,32.13
2022-10-21T08:39:28.885Z,29.27
2022-10-21T08:44:49.324Z,37.83
2022-10-21T08:47:32.098Z,46.65
2022-10-21T08:50:23.660Z,34.15
2022-10-21T08:53:03.435Z,26.58
2022-10-21T08:55:42.099Z,31.85
2022-10-21T08:58:17.373Z,25.65
2022-10-21T09:00:52.302Z,39.40
2022-10-21T09:03:41.889Z,29.35
2022-10-21T09:06:50.844Z,36.08
2022-10-21T09:09:34.303Z,44.08
2022-10-21T09:12:19.784Z,30.65
2022-10-21T09:15:23.612Z,47.03
2022-10-21T09:18:18.694Z,46.55
2022-10-21T09:21:22.717Z,32.78
2022-10-21T09:24:04.531Z,52.92
2022-10-21T09:26:46.509Z,44.42
2022-10-21T09:29:21.992Z,28.33
2022-10-21T09:31:56.160Z,32.63
2022-10-21T09:34:41.344Z,35.95
2022-10-21T09:37:25.149Z,30.95
2022-10-21T09:40:18.353Z,30.02
2022-10-21T09:42:50.310Z,32.83
2022-10-21T09:49:00.879Z,43.08
2022-10-21T09:51:35.213Z,38.35
2022-10-21T09:54:11.138Z,36.03
2022-10-21T09:57:27.223Z,42.17
2022-10-21T10:00:00.573Z,38.67
2022-10-21T10:02:46.022Z,30.50
2022-10-21T10:05:59.926Z,26.98
2022-10-21T10:09:15.246Z,152.85
2022-10-21T10:12:49.954Z,35.80
2022-10-21T10:15:35.203Z,30.20
2022-10-21T10:18:24.787Z,34.63
2022-10-21T10:21:16.098Z,44.17
2022-10-21T10:23:50.211Z,42.17
2022-10-21T10:26:24.706Z,34.45
2022-10-21T10:29:02.263Z,43.70
2022-10-21T10:31:35.372Z,38.55
2022-10-21T10:34:08.500Z,25.88
2022-10-21T10:36:42.261Z,148.80
2022-10-21T10:39:40.334Z,38.05
2022-10-21T10:42:19.879Z,31.88
2022-10-21T10:44:53.202Z,36.38
2022-10-21T10:47:29.330Z,37.95
2022-10-21T10:49:59.141Z,34.58
2022-10-21T10:52:33.838Z,38.15
2022-10-21T10:55:12.617Z,53.28
2022-10-21T10:57:58.509Z,34.05
2022-10-21T11:00:44.005Z,112.10
2022-10-21T11:03:25.852Z,45.28
2022-10-21T11:06:07.210Z,37.60
2022-10-21T11:08:44.683Z,38.22
2022-10-21T11:11:26.136Z,79.32
2022-10-21T11:13:55.701Z,33.78
2022-10-21T11:16:50.498Z,46.00
2022-10-21T11:19:32.114Z,45.42
2022-10-21T11:22:17.445Z,50.25
2022-10-21T11:25:04.637Z,45.40
2022-10-21T11:28:04.920Z,68.43
2022-10-21T11:30:37.074Z,44.60
2022-10-21T11:33:07.225Z,58.13
2022-10-21T11:35:56.837Z,64.93
2022-10-21T11:38:35.742Z,54.78
2022-10-21T11:41:31.909Z,70.90
2022-10-21T11:44:05.193Z,52.70
2022-10-21T11:46:41.671Z,44.58
2022-10-21T11:49:40.147Z,54.88
2022-10-21T11:52:29.658Z,70.03
2022-10-21T11:55:11.654Z,66.70
2022-10-21T11:57:47.083Z,63.90
2022-10-21T12:00:21.738Z,51.38
2022-10-21T12:03:19.342Z,58.40
2022-10-21T12:06:14.038Z,73.32
2022-10-21T12:09:22.867Z,83.70
2022-10-21T12:11:57.626Z,69.32
2022-10-21T12:15:00.550Z,99.40
2022-10-21T12:17:34.548Z,68.80
2022-10-21T12:20:08.373Z,82.38
2022-10-21T12:22:38.416Z,91.88
2022-10-21T12:25:29.272Z,58.08
2022-10-21T12:28:06.792Z,64.93
2022-10-21T12:31:18.647Z,73.07
2022-10-21T12:33:50.643Z,86.25
2022-10-21T12:36:26.838Z,97.72
2022-10-21T12:38:58.530Z,121.28
2022-10-21T12:41:39.292Z,175.03
2022-10-21T12:44:26.413Z,258.92
2022-10-21T12:47:02.553Z,124.45
2022-10-21T12:49:34.636Z,187.20
2022-10-21T12:54:58.221Z,114.40
2022-10-21T12:57:40.040Z,139.88
2022-10-21T13:03:13.918Z,129.77
2022-10-21T13:05:42.955Z,117.97
2022-10-21T13:08:24.111Z,153.60
2022-10-21T13:11:06.112Z,211.13
2022-10-21T13:13:40.941Z,143.77
2022-10-21T13:16:22.636Z,130.80
2022-10-21T13:19:03.409Z,118.00
2022-10-21T13:21:39.849Z,115.15
2022-10-21T13:24:17.344Z,111.82
2022-10-21T13:27:01.420Z,142.90
2022-10-21T13:29:42.351Z,138.10
2022-10-21T13:32:20.070Z,133.88
2022-10-21T13:35:00.608Z,109.32
2022-10-21T13:37:32.935Z,153.23
2022-10-21T13:40:14.809Z,191.02
2022-10-21T13:42:50.580Z,125.75
2022-10-21T13:45:31.765Z,123.60
2022-10-21T13:48:19.030Z,136.75
2022-10-21T13:50:54.132Z,147.32
2022-10-21T13:53:27.562Z,132.88
2022-10-21T13:56:03.389Z,110.20
2022-10-21T13:58:40.214Z,107.10
2022-10-21T14:01:22.675Z,124.57
2022-10-21T14:03:53.207Z,104.43
2022-10-21T14:06:24.007Z,119.63
2022-10-21T14:08:55.761Z,95.90
2022-10-21T14:11:34.795Z,177.20
2022-10-21T14:14:11.311Z,95.70
2022-10-21T14:16:50.556Z,103.80
2022-10-21T14:19:24.647Z,123.97
2022-10-21T14:21:56.276Z,116.25
2022-10-21T14:24:35.517Z,133.73
2022-10-21T14:27:05.956Z,93.93
2022-10-21T14:29:37.734Z,90.47
2022-10-21T14:32:07.489Z,112.50
2022-10-21T14:34:37.894Z,100.13
2022-10-21T14:37:12.769Z,102.38
2022-10-21T14:39:42.237Z,104.88
2022-10-21T14:42:25.124Z,118.93
2022-10-21T14:45:04.654Z,158.77
2022-10-21T14:47:34.000Z,131.70
2022-10-21T14:50:05.269Z,129.38
2022-10-21T14:52:40.193Z,129.00
2022-10-21T14:55:15.559Z,156.10
2022-10-21T14:58:11.558Z,174.52
2022-10-21T15:00:42.978Z,214.02
2022-10-21T15:03:13.743Z,212.60
2022-10-21T15:05:49.485Z,239.07
2022-10-21T15:08:21.721Z,240.13
2022-10-21T15:11:01.480Z,271.98
2022-10-21T15:13:30.642Z,237.40
2022-10-21T15:16:02.007Z,319.60
2022-10-21T15:18:40.335Z,261.48
2022-10-21T15:21:13.844Z,289.60
2022-10-21T15:23:50.266Z,243.30
2022-10-21T15:26:35.345Z,261.50
2022-10-21T15:29:23.807Z,242.18
2022-10-21T15:31:56.216Z,297.48
2022-10-21T15:34:26.443Z,245.23
2022-10-21T15:36:55.731Z,182.40
2022-10-21T15:39:25.094Z,244.77
2022-10-21T15:41:56.105Z,175.90
2022-10-21T15:44:33.641Z,182.77
2022-10-21T15:47:06.700Z,188.77
2022-10-21T15:49:47.860Z,179.57
2022-10-21T15:52:17.505Z,188.35
2022-10-21T15:54:46.530Z,167.60
2022-10-21T15:57:23.202Z,173.43
2022-10-21T15:59:52.628Z,154.27
2022-10-21T16:02:21.708Z,157.63
2022-10-21T16:04:54.300Z,146.48
2022-10-21T16:09:53.872Z,141.73
2022-10-21T16:12:23.719Z,142.63
2022-10-21T16:14:53.215Z,128.50
2022-10-21T16:17:24.711Z,134.57
2022-10-21T16:19:54.565Z,129.48
2022-10-21T16:22:24.256Z,124.93
2022-10-21T16:24:53.423Z,98.88
2022-10-21T16:27:43.006Z,98.28
2022-10-21T16:30:25.158Z,90.85
2022-10-21T16:32:54.740Z,100.35
2022-10-21T16:35:24.080Z,106.88
2022-10-21T16:37:53.460Z,103.35
2022-10-21T16:40:36.106Z,120.43
2022-10-21T16:43:05.287Z,88.32
2022-10-21T16:45:34.665Z,93.72
2022-10-21T16:48:06.396Z,73.00
2022-10-21T16:50:42.818Z,77.10
2022-10-21T16:53:17.718Z,73.85
2022-10-21T16:55:46.942Z,78.80
2022-10-21T16:58:16.372Z,102.28
2022-10-21T17:00:47.001Z,74.25
2022-10-21T17:03:16.292Z,68.40
2022-10-21T17:05:45.390Z,67.07
2022-10-21T17:08:14.544Z,70.88
2022-10-21T17:10:44.362Z,63.00
2022-10-21T17:13:14.059Z,81.88
2022-10-21T17:15:43.359Z,74.32
2022-10-21T17:18:15.524Z,68.85
2022-10-21T17:20:45.272Z,70.97
2022-10-21T17:23:14.550Z,76.15
2022-10-21T17:25:43.765Z,77.60
2022-10-21T17:28:13.528Z,81.53
2022-10-21T17:30:42.794Z,84.10
2022-10-21T17:33:14.299Z,83.78
2022-10-21T17:35:44.074Z,94.60
2022-10-21T17:38:14.611Z,95.25
2022-10-21T17:40:43.925Z,99.80
2022-10-21T17:43:13.002Z,137.45
2022-10-21T17:45:42.522Z,108.97
2022-10-21T17:48:12.123Z,98.93
2022-10-21T17:50:41.491Z,111.95
2022-10-21T17:53:10.791Z,117.13
2022-10-21T17:55:39.848Z,119.72
2022-10-21T17:58:09.103Z,124.53
2022-10-21T18:00:44.487Z,113.53
2022-10-21T18:03:14.869Z,115.70
2022-10-21T18:05:43.998Z,148.50
2022-10-21T18:08:13.398Z,127.50
2022-10-21T18:10:42.726Z,134.15
2022-10-21T18:13:11.834Z,141.40
2022-10-21T18:15:41.368Z,103.47
2022-10-21T18:18:10.631Z,114.82
2022-10-21T18:20:40.345Z,85.38
2022-10-21T18:23:09.774Z,89.10
2022-10-21T18:25:41.204Z,87.32
2022-10-21T18:28:11.099Z,78.33
2022-10-21T18:30:44.298Z,82.70
2022-10-21T18:33:13.780Z,79.70
2022-10-21T18:35:42.898Z,90.82
2022-10-21T18:38:12.184Z,90.63
2022-10-21T18:40:47.126Z,87.93
2022-10-21T18:43:25.794Z,94.13
2022-10-21T18:45:57.161Z,87.57
2022-10-21T18:48:26.394Z,89.47
2022-10-21T18:50:55.571Z,97.90
2022-10-21T18:53:24.973Z,107.93
2022-10-21T18:55:53.981Z,98.97
2022-10-21T18:58:23.618Z,99.85
2022-10-21T19:00:52.852Z,94.78
2022-10-21T19:03:22.085Z,107.60
2022-10-21T19:05:51.676Z,101.50
2022-10-21T19:08:20.922Z,100.70
2022-10-21T19:10:50.276Z,98.18
2022-10-21T19:13:19.625Z,101.13
2022-10-21T19:15:48.846Z,98.82
2022-10-21T19:18:18.027Z,110.65
2022-10-21T19:20:47.764Z,104.70
2022-10-21T19:23:17.437Z,117.63
2022-10-21T19:25:46.763Z,106.43
2022-10-21T19:28:16.135Z,108.78
2022-10-21T19:30:46.868Z,103.03
2022-10-21T19:33:16.131Z,106.00
2022-10-21T19:35:45.059Z,95.32
2022-10-21T19:38:20.811Z,101.75
2022-10-21T19:41:01.847Z,103.10
2022-10-21T19:43:31.157Z,110.80
2022-10-21T19:46:03.827Z,101.95
2022-10-21T19:51:02.297Z,115.45
2022-10-21T19:53:35.365Z,95.88
2022-10-21T19:56:06.482Z,103.50
2022-10-21T19:58:38.639Z,100.85
2022-10-21T20:01:19.325Z,102.88
2022-10-21T20:03:50.600Z,112.50
2022-10-21T20:06:26.662Z,106.38
2022-10-21T20:08:58.229Z,104.10
2022-10-21T20:11:28.689Z,99.30
2022-10-21T20:13:58.381Z,111.55
2022-10-21T20:16:32.795Z,94.30
2022-10-21T20:19:04.256Z,114.13
2022-10-21T20:21:34.627Z,105.32
2022-10-21T20:24:04.112Z,95.25
2022-10-21T20:26:33.409Z,94.03
2022-10-21T20:29:03.840Z,107.40
2022-10-21T20:31:33.202Z,103.57
2022-10-21T20:34:02.398Z,91.85
2022-10-21T20:36:33.947Z,102.47
2022-10-21T20:39:04.288Z,88.70
2022-10-21T20:41:38.355Z,89.97
2022-10-21T20:44:12.017Z,90.38
2022-10-21T20:46:41.275Z,96.40
2022-10-21T20:49:11.642Z,93.90
2022-10-21T20:51:45.717Z,84.60
2022-10-21T20:54:18.991Z,91.45
2022-10-21T20:56:48.358Z,94.05
2022-10-21T20:59:18.475Z,92.50
2022-10-21T21:01:49.215Z,106.13
2022-10-21T21:04:24.573Z,100.25
2022-10-21T21:06:54.296Z,116.28
2022-10-21T21:10:01.007Z,121.47
2022-10-21T21:12:12.705Z,124.82
2022-10-21T21:14:41.757Z,131.05
2022-10-21T21:17:11.301Z,133.80
2022-10-21T21:19:41.209Z,117.50
2022-10-21T21:22:10.401Z,131.60
2022-10-21T21:24:39.514Z,118.00
2022-10-21T21:27:08.878Z,126.68
2022-10-21T21:29:37.865Z,132.77
2022-10-21T21:32:07.849Z,119.47
2022-10-21T21:34:37.171Z,115.65
2022-10-21T21:37:06.174Z,128.85
2022-10-21T21:39:35.419Z,119.55
2022-10-21T21:42:04.605Z,113.85
2022-10-21T21:44:33.967Z,99.45
2022-10-21T21:47:03.354Z,110.65
2022-10-21T21:49:32.449Z,111.45
2022-10-21T21:52:01.779Z,121.10
2022-10-21T21:54:31.057Z,122.43
2022-10-21T21:57:26.286Z,115.68
2022-10-21T21:59:49.590Z,107.00
2022-10-21T22:02:18.645Z,114.45
2022-10-21T22:04:48.048Z,125.82
2022-10-21T22:07:17.200Z,134.48
2022-10-21T22:09:46.422Z,160.10
2022-10-21T22:12:17.030Z,163.50
2022-10-21T22:14:46.975Z,176.85
2022-10-21T22:17:16.256Z,177.57
2022-10-21T22:19:45.441Z,189.13
2022-10-21T22:22:14.828Z,208.45
2022-10-21T22:24:44.001Z,193.30
2022-10-21T22:27:13.147Z,191.35
2022-10-21T22:29:42.306Z,188.70
2022-10-21T22:32:13.614Z,192.52
2022-10-21T22:34:43.706Z,188.55
2022-10-21T22:37:12.807Z,175.52
2022-10-21T22:39:41.919Z,170.00
2022-10-21T22:42:11.111Z,146.85
2022-10-21T22:44:40.249Z,146.20
2022-10-21T22:47:09.407Z,132.80
2022-10-21T22:49:38.772Z,138.18
2022-10-21T22:52:08.332Z,118.88
2022-10-21T22:54:49.063Z,113.70
2022-10-21T22:57:19.105Z,104.03
2022-10-21T22:59:52.814Z,104.65
2022-10-21T23:02:23.001Z,104.75
2022-10-21T23:04:52.030Z,90.80
2022-10-21T23:07:21.084Z,103.38
2022-10-21T23:09:52.467Z,97.30
2022-10-21T23:12:21.954Z,115.63
2022-10-21T23:14:51.140Z,121.22
2022-10-21T23:17:20.339Z,105.75
2022-10-21T23:19:49.488Z,113.68
2022-10-21T23:22:19.000Z,116.20
2022-10-21T23:24:50.259Z,121.25
2022-10-21T23:27:19.547Z,117.25
2022-10-21T23:29:48.666Z,121.35
2022-10-21T23:32:17.808Z,126.90
2022-10-21T23:34:46.994Z,137.93
2022-10-21T23:37:16.157Z,130.18
2022-10-21T23:39:45.809Z,135.13
2022-10-21T23:42:14.993Z,132.38
2022-10-21T23:44:43.981Z,124.20
2022-10-21T23:47:13.412Z,117.85
2022-10-21T23:49:42.380Z,134.73
2022-10-21T23:52:11.447Z,127.32
2022-10-21T23:54:40.651Z,116.00
2022-10-21T23:57:09.868Z,136.60
2022-10-21T23:59:39.030Z,135.85
